Time,TemperatureF,DewpointF,PressureIn,WindDirection,WindDirectionDegrees,WindSpeedMPH,WindSpeedGustMPH,Humidity,HourlyPrecipIn,Conditions,Clouds,dailyrainin,SolarRadiationWatts/m^2,SoftwareType,DateUTC
2013-10-24 00:11:00,29.0,5.0,-100.00,SE,142,0.0,0.0,35,0.00,,,0.00,0.000000,,2013-10-24 08:11:00,
2013-10-24 00:21:00,29.0,5.0,-100.00,SE,142,0.0,0.0,35,0.00,,,0.00,0.000000,,2013-10-24 08:21:00,
2013-10-24 00:32:00,29.0,5.0,-100.00,SE,142,0.0,0.0,35,0.00,,,0.00,0.000000,,2013-10-24 08:32:00,
2013-10-24 00:42:00,29.0,5.0,-100.00,SE,142,0.0,0.0,35,0.00,,,0.00,0.000000,,2013-10-24 08:42:00,
2013-10-24 00:43:00,27.0,5.0,-100.00,SE,143,0.0,0.0,37,0.00,,,0.00,0.000000,,2013-10-24 08:43:00,
2013-10-24 01:12:00,27.0,5.0,-100.00,SE,143,0.0,0.0,37,0.00,,,0.00,0.000000,,2013-10-24 09:12:00,
2013-10-24 01:22:00,27.0,5.0,-100.00,SE,143,0.0,0.0,37,0.00,,,0.00,0.000000,,2013-10-24 09:22:00,
2013-10-24 01:33:00,27.0,5.0,-100.00,SE,143,0.0,0.0,37,0.00,,,0.00,0.000000,,2013-10-24 09:33:00,
2013-10-24 02:12:00,28.0,3.0,-100.00,SSE,154,0.0,0.0,34,0.00,,,0.00,0.000000,,2013-10-24 10:12:00,
2013-10-24 02:23:00,28.0,3.0,-100.00,SSE,154,0.0,0.0,34,0.00,,,0.00,0.000000,,2013-10-24 10:23:00,
2013-10-24 02:33:00,28.0,3.0,-100.00,SSE,154,0.0,0.0,34,0.00,,,0.00,0.000000,,2013-10-24 10:33:00,
2013-10-24 02:42:00,28.0,3.0,-100.00,SSE,154,0.0,0.0,34,0.00,,,0.00,0.000000,,2013-10-24 10:42:00,
2013-10-24 03:12:00,27.0,3.0,-100.00,SSE,151,0.0,0.0,34,0.00,,,0.00,0.000000,,2013-10-24 11:12:00,
2013-10-24 03:22:00,27.0,3.0,-100.00,SSE,151,0.0,0.0,34,0.00,,,0.00,0.000000,,2013-10-24 11:22:00,
2013-10-24 03:33:00,27.0,3.0,-100.00,SSE,151,0.0,0.0,34,0.00,,,0.00,0.000000,,2013-10-24 11:33:00,
2013-10-24 03:42:00,27.0,3.0,-100.00,SSE,151,0.0,0.0,34,0.00,,,0.00,0.000000,,2013-10-24 11:42:00,
2013-10-24 04:12:00,24.0,17.0,-100.00,SE,146,0.0,0.0,75,0.00,,,0.00,0.000000,,2013-10-24 12:12:00,
2013-10-24 04:22:00,24.0,17.0,-100.00,SE,146,0.0,0.0,75,0.00,,,0.00,0.000000,,2013-10-24 12:22:00,
2013-10-24 04:32:00,24.0,17.0,-100.00,SE,146,0.0,0.0,75,0.00,,,0.00,0.000000,,2013-10-24 12:32:00,
2013-10-24 04:42:00,24.0,17.0,-100.00,SE,146,0.0,0.0,75,0.00,,,0.00,0.000000,,2013-10-24 12:42:00,
2013-10-24 05:12:00,24.0,22.0,-100.00,SE,128,0.0,0.0,93,0.00,,,0.00,0.000000,,2013-10-24 13:12:00,
2013-10-24 05:22:00,24.0,22.0,-100.00,SE,128,0.0,0.0,93,0.00,,,0.00,0.000000,,2013-10-24 13:22:00,
2013-10-24 05:32:00,24.0,22.0,-100.00,SE,128,0.0,0.0,93,0.00,,,0.00,0.000000,,2013-10-24 13:32:00,
2013-10-24 05:42:00,24.0,22.0,-100.00,SE,128,0.0,0.0,93,0.00,,,0.00,0.000000,,2013-10-24 13:42:00,
2013-10-24 06:11:00,24.0,23.0,-100.00,ESE,110,0.0,0.0,93,0.00,,,0.00,0.000000,,2013-10-24 14:11:00,
2013-10-24 06:21:00,24.0,23.0,-100.00,ESE,110,0.0,0.0,93,0.00,,,0.00,0.000000,,2013-10-24 14:21:00,
2013-10-24 06:32:00,24.0,23.0,-100.00,ESE,110,0.0,0.0,93,0.00,,,0.00,0.000000,,2013-10-24 14:32:00,
2013-10-24 06:42:00,24.0,23.0,-100.00,ESE,110,0.0,0.0,93,0.00,,,0.00,0.000000,,2013-10-24 14:42:00,
2013-10-24 06:43:00,25.0,23.0,-100.00,ESE,112,0.0,0.0,93,0.00,,,0.00,0.000000,,2013-10-24 14:43:00,
2013-10-24 07:11:00,25.0,23.0,-100.00,ESE,112,0.0,0.0,93,0.00,,,0.00,0.000000,,2013-10-24 15:11:00,
2013-10-24 07:21:00,25.0,23.0,-100.00,ESE,112,0.0,0.0,93,0.00,,,0.00,0.000000,,2013-10-24 15:21:00,
2013-10-24 07:33:00,25.0,23.0,-100.00,ESE,112,0.0,0.0,93,0.00,,,0.00,0.000000,,2013-10-24 15:33:00,
2013-10-24 08:13:00,25.0,23.0,-100.00,ESE,116,0.0,0.0,92,0.01,,,0.01,0.000000,,2013-10-24 16:13:00,
2013-10-24 08:23:00,25.0,23.0,-100.00,ESE,116,0.0,0.0,92,0.01,,,0.01,0.000000,,2013-10-24 16:23:00,
2013-10-24 08:32:00,25.0,23.0,-100.00,ESE,116,0.0,0.0,92,0.01,,,0.01,0.000000,,2013-10-24 16:32:00,
2013-10-24 08:42:00,25.0,23.0,-100.00,ESE,116,0.0,0.0,92,0.01,,,0.01,0.000000,,2013-10-24 16:42:00,
2013-10-24 08:43:00,25.0,23.0,-100.00,ESE,117,0.0,0.0,93,0.01,,,0.02,0.000000,,2013-10-24 16:43:00,
2013-10-24 09:12:00,25.0,23.0,-100.00,ESE,117,0.0,0.0,93,0.01,,,0.02,0.000000,,2013-10-24 17:12:00,
2013-10-24 09:22:00,25.0,23.0,-100.00,ESE,117,0.0,0.0,93,0.01,,,0.02,0.000000,,2013-10-24 17:22:00,
2013-10-24 09:34:00,25.0,23.0,-100.00,ESE,117,0.0,0.0,93,0.01,,,0.02,0.000000,,2013-10-24 17:34:00,
2013-10-24 10:12:00,26.0,25.0,-100.00,ESE,112,0.0,0.0,93,0.04,,,0.06,0.000000,,2013-10-24 18:12:00,
2013-10-24 10:22:00,26.0,25.0,-100.00,ESE,112,0.0,0.0,93,0.04,,,0.06,0.000000,,2013-10-24 18:22:00,
2013-10-24 10:32:00,26.0,25.0,-100.00,ESE,112,0.0,0.0,93,0.04,,,0.06,0.000000,,2013-10-24 18:32:00,
2013-10-24 10:42:00,26.0,25.0,-100.00,ESE,112,0.0,0.0,93,0.04,,,0.06,0.000000,,2013-10-24 18:42:00,
2013-10-24 10:43:00,27.0,24.0,-100.00,ESE,108,0.0,0.0,91,0.00,,,0.06,0.000000,,2013-10-24 18:43:00,
2013-10-24 11:11:00,27.0,24.0,-100.00,ESE,108,0.0,0.0,91,0.00,,,0.06,0.000000,,2013-10-24 19:11:00,
2013-10-24 11:22:00,27.0,24.0,-100.00,ESE,108,0.0,0.0,91,0.00,,,0.06,0.000000,,2013-10-24 19:22:00,
2013-10-24 11:32:00,27.0,24.0,-100.00,ESE,108,0.0,0.0,91,0.00,,,0.06,0.000000,,2013-10-24 19:32:00,
2013-10-24 12:11:00,27.0,25.0,-100.00,ESE,104,0.0,0.0,91,0.00,,,0.06,0.000000,,2013-10-24 20:11:00,
2013-10-24 12:22:00,27.0,25.0,-100.00,ESE,104,0.0,0.0,91,0.00,,,0.06,0.000000,,2013-10-24 20:22:00,
2013-10-24 12:32:00,27.0,25.0,-100.00,ESE,104,0.0,0.0,91,0.00,,,0.06,0.000000,,2013-10-24 20:32:00,
2013-10-24 12:42:00,27.0,25.0,-100.00,ESE,104,0.0,0.0,91,0.00,,,0.06,0.000000,,2013-10-24 20:42:00,
2013-10-24 12:43:00,27.0,24.0,-100.00,ESE,107,0.0,0.0,91,0.02,,,0.08,0.000000,,2013-10-24 20:43:00,
2013-10-24 13:12:00,27.0,24.0,-100.00,ESE,107,0.0,0.0,91,0.02,,,0.08,0.000000,,2013-10-24 21:12:00,
2013-10-24 13:22:00,27.0,24.0,-100.00,ESE,107,0.0,0.0,91,0.02,,,0.08,0.000000,,2013-10-24 21:22:00,
2013-10-24 13:34:00,27.0,24.0,-100.00,ESE,107,0.0,0.0,91,0.02,,,0.08,0.000000,,2013-10-24 21:34:00,
2013-10-24 13:43:00,26.0,24.0,-100.00,ESE,111,0.0,0.0,91,0.03,,,0.11,0.000000,,2013-10-24 21:43:00,
2013-10-24 14:13:00,26.0,24.0,-100.00,ESE,111,0.0,0.0,91,0.03,,,0.11,0.000000,,2013-10-24 22:13:00,
2013-10-24 14:24:00,26.0,24.0,-100.00,ESE,111,0.0,0.0,91,0.03,,,0.11,0.000000,,2013-10-24 22:24:00,
2013-10-24 14:34:00,26.0,24.0,-100.00,ESE,111,0.0,0.0,91,0.03,,,0.11,0.000000,,2013-10-24 22:34:00,
2013-10-24 14:43:00,25.0,23.0,-100.00,ESE,117,0.0,0.0,90,0.04,,,0.15,0.000000,,2013-10-24 22:43:00,
2013-10-24 15:12:00,25.0,23.0,-100.00,ESE,117,0.0,0.0,90,0.04,,,0.15,0.000000,,2013-10-24 23:12:00,
2013-10-24 15:22:00,25.0,23.0,-100.00,ESE,117,0.0,0.0,90,0.04,,,0.15,0.000000,,2013-10-24 23:22:00,
2013-10-24 15:34:00,25.0,23.0,-100.00,ESE,117,0.0,0.0,90,0.04,,,0.15,0.000000,,2013-10-24 23:34:00,
2013-10-24 16:12:00,26.0,23.0,-100.00,ESE,116,0.0,0.0,91,0.02,,,0.17,0.000000,,2013-10-25 00:12:00,
2013-10-24 16:21:00,26.0,23.0,-100.00,ESE,116,0.0,0.0,91,0.02,,,0.17,0.000000,,2013-10-25 00:21:00,
2013-10-24 16:32:00,26.0,23.0,-100.00,ESE,116,0.0,0.0,91,0.02,,,0.17,0.000000,,2013-10-25 00:32:00,
2013-10-24 16:42:00,26.0,23.0,-100.00,ESE,116,0.0,0.0,91,0.02,,,0.17,0.000000,,2013-10-25 00:42:00,
2013-10-24 17:11:00,26.0,24.0,-100.00,ESE,120,0.0,0.0,91,0.04,,,0.21,0.000000,,2013-10-25 01:11:00,
2013-10-24 17:21:00,26.0,24.0,-100.00,ESE,120,0.0,0.0,91,0.04,,,0.21,0.000000,,2013-10-25 01:21:00,
2013-10-24 17:32:00,26.0,24.0,-100.00,ESE,120,0.0,0.0,91,0.04,,,0.21,0.000000,,2013-10-25 01:32:00,
2013-10-24 17:42:00,26.0,24.0,-100.00,ESE,120,0.0,0.0,91,0.04,,,0.21,0.000000,,2013-10-25 01:42:00,
2013-10-24 17:43:00,-999.0,-99.9,-100.00,North,-999,0.0,-999.0,-999,0.00,,,0.21,,,2013-10-25 01:43:00,
2013-10-24 18:02:00,-999.0,-99.9,-100.00,North,-999,0.0,-999.0,-999,0.00,,,0.21,,,2013-10-25 02:02:00,
2013-10-24 18:12:00,-999.0,-99.9,-100.00,North,-999,0.0,-999.0,-999,0.00,,,0.21,,,2013-10-25 02:12:00,
2013-10-24 18:23:00,-999.0,-99.9,-100.00,North,-999,0.0,-999.0,-999,0.00,,,0.21,,,2013-10-25 02:23:00,
2013-10-24 18:32:00,-999.0,-99.9,-100.00,North,-999,0.0,-999.0,-999,0.00,,,0.21,,,2013-10-25 02:32:00,
2013-10-24 18:43:00,27.0,24.0,-100.00,ESE,111,0.0,0.0,91,0.00,,,0.21,0.000000,,2013-10-25 02:43:00,
2013-10-24 19:12:00,27.0,24.0,-100.00,ESE,111,0.0,0.0,91,0.00,,,0.21,0.000000,,2013-10-25 03:12:00,
2013-10-24 19:23:00,27.0,24.0,-100.00,ESE,111,0.0,0.0,91,0.00,,,0.21,0.000000,,2013-10-25 03:23:00,
2013-10-24 19:34:00,27.0,24.0,-100.00,ESE,111,0.0,0.0,91,0.00,,,0.21,0.000000,,2013-10-25 03:34:00,
2013-10-24 19:43:00,28.0,26.0,-100.00,ESE,110,0.0,0.0,92,0.00,,,0.21,0.000000,,2013-10-25 03:43:00,
2013-10-24 20:14:00,28.0,26.0,-100.00,ESE,110,0.0,0.0,92,0.00,,,0.21,0.000000,,2013-10-25 04:14:00,
2013-10-24 20:24:00,28.0,26.0,-100.00,ESE,110,0.0,0.0,92,0.00,,,0.21,0.000000,,2013-10-25 04:24:00,
2013-10-24 20:34:00,28.0,26.0,-100.00,ESE,110,0.0,0.0,92,0.00,,,0.21,0.000000,,2013-10-25 04:34:00,
2013-10-24 21:12:00,29.0,27.0,-100.00,ESE,108,0.0,0.0,92,0.02,,,0.23,0.000000,,2013-10-25 05:12:00,
2013-10-24 21:21:00,29.0,27.0,-100.00,ESE,108,0.0,0.0,92,0.02,,,0.23,0.000000,,2013-10-25 05:21:00,
2013-10-24 21:32:00,29.0,27.0,-100.00,ESE,108,0.0,0.0,92,0.02,,,0.23,0.000000,,2013-10-25 05:32:00,
2013-10-24 21:42:00,29.0,27.0,-100.00,ESE,108,0.0,0.0,92,0.02,,,0.23,0.000000,,2013-10-25 05:42:00,
2013-10-24 22:11:00,29.0,27.0,-100.00,ESE,109,0.0,0.0,93,0.01,,,0.24,0.000000,,2013-10-25 06:11:00,
2013-10-24 22:21:00,29.0,27.0,-100.00,ESE,109,0.0,0.0,93,0.01,,,0.24,0.000000,,2013-10-25 06:21:00,
2013-10-24 22:31:00,29.0,27.0,-100.00,ESE,109,0.0,0.0,93,0.01,,,0.24,0.000000,,2013-10-25 06:31:00,
2013-10-24 22:41:00,29.0,27.0,-100.00,ESE,109,0.0,0.0,93,0.01,,,0.24,0.000000,,2013-10-25 06:41:00,
2013-10-24 23:11:00,30.0,28.0,-100.00,ESE,107,0.0,0.0,91,0.07,,,0.31,0.000000,,2013-10-25 07:11:00,
2013-10-24 23:21:00,30.0,28.0,-100.00,ESE,107,0.0,0.0,91,0.07,,,0.31,0.000000,,2013-10-25 07:21:00,
2013-10-24 23:31:00,30.0,28.0,-100.00,ESE,107,0.0,0.0,91,0.07,,,0.31,0.000000,,2013-10-25 07:31:00,
2013-10-24 23:41:00,30.0,28.0,-100.00,ESE,107,0.0,0.0,91,0.07,,,0.31,0.000000,,2013-10-25 07:41:00,